Time;durP1;ratioP1;P1;durP2;ratioP2;P2;SDS_P1;SDS_P2;PMS_P1;PMS_P2;Temp;Humidity;BMP_temperature;BMP_pressure;BME280_temperature;BME280_humidity;BME280_pressure;Samples;Min_cycle;Max_cycle;Signal;HPM_P1;HPM_P2
2022/11/26 00:00:59;;;;;;;;;;;;;;;6.59;64.03;97430.88;5099197;28;19969;-76
2022/11/26 00:03:26;;;;;;;;;;;;;;;6.59;63.93;97436.84;5072806;28;19920;-76
2022/11/26 00:05:55;;;;;;;;;;;;;;;6.61;63.55;97439.41;5090214;28;19947;-77
2022/11/26 00:08:30;;;;;;;;;;;;;;;6.41;64.35;97431.28;5090161;28;19934;-77
2022/11/26 00:10:57;;;;;;;;;;;;;;;6.26;64.90;97434.22;5089897;28;19920;-77
2022/11/26 00:13:27;;;;;;;;;;;;;;;6.13;66.00;97432.78;5071344;28;19927;-77
2022/11/26 00:15:56;;;;;;;;;;;;;;;6.10;65.86;97436.28;5089992;28;19926;-77
2022/11/26 00:18:25;;;;;;;;;;;;;;;6.27;65.38;97449.59;5089592;28;19953;-77
2022/11/26 00:20:53;;;;;;;;;;;;;;;6.21;65.75;97457.47;5089630;28;19920;-77
2022/11/26 00:23:25;;;;;;;;;;;;;;;6.25;65.13;97455.66;5088008;28;19954;-76
2022/11/26 00:25:53;;;;;;;;;;;;;;;6.07;65.99;97461.22;5089221;28;20317;-76
2022/11/26 00:28:23;;;;;;;;;;;;;;;6.13;66.11;97461.94;5090211;28;19931;-77
2022/11/26 00:30:51;;;;;;;;;;;;;;;5.91;66.82;97460.69;5070530;28;20011;-77
2022/11/26 00:33:18;;;;;;;;;;;;;;;5.47;67.59;97465.81;5071509;28;19927;-77
2022/11/26 00:35:48;;;;;;;9.37;5.13;;;;;;;5.36;68.23;97467.72;5088194;28;20954;-78
2022/11/26 00:38:20;;;;;;;7.00;5.20;;;;;;;5.47;68.40;97461.53;5088678;28;20220;-77
2022/11/26 00:40:47;;;;;;;6.00;4.53;;;;;;;5.46;67.79;97447.00;5088575;28;20186;-77
2022/11/26 00:43:16;;;;;;;6.97;5.17;;;;;;;5.54;67.35;97465.66;5087871;28;20192;-77
2022/11/26 00:45:46;;;;;;;6.27;5.00;;;;;;;4.89;68.50;97437.78;5103916;28;20261;-78
2022/11/26 00:48:14;;;;;;;7.57;4.73;;;;;;;5.03;69.06;97458.09;5088271;28;20184;-78
2022/11/26 00:50:50;;;;;;;5.07;4.40;;;;;;;5.14;68.05;97453.59;5088721;28;20271;-78
2022/11/26 00:53:21;;;;;;;10.17;5.03;;;;;;;5.41;67.37;97474.50;5070199;28;20196;-78
2022/11/26 00:55:49;;;;;;;6.90;4.50;;;;;;;5.46;67.54;97464.97;5088485;28;20196;-78
2022/11/26 00:58:28;;;;;;;6.43;4.60;;;;;;;5.52;66.58;97467.41;5093952;28;20785;-78
2022/11/26 01:00:56;;;;;;;;;;;;;;;5.49;65.72;97476.91;5088050;28;20200;-78
2022/11/26 01:03:26;;;;;;;6.77;4.77;;;;;;;5.28;67.15;97473.03;5088876;28;20234;-78
2022/11/26 01:05:56;;;;;;;7.13;4.37;;;;;;;5.19;66.65;97483.47;5069944;28;20192;-79
2022/11/26 01:08:28;;;;;;;8.63;4.50;;;;;;;5.19;66.85;97485.19;5088643;28;20315;-78
2022/11/26 01:10:57;;;;;;;5.97;4.57;;;;;;;4.94;67.40;97483.03;5087948;28;20806;-78
2022/11/26 01:13:25;;;;;;;5.60;4.27;;;;;;;4.92;67.05;97484.75;5088215;28;20188;-78
2022/11/26 01:15:54;;;;;;;8.23;4.57;;;;;;;4.85;67.24;97475.50;5088443;28;20576;-78
2022/11/26 01:18:22;;;;;;;7.93;4.43;;;;;;;4.72;67.22;97473.13;5069445;28;20224;-78
2022/11/26 01:20:50;;;;;;;7.70;5.17;;;;;;;4.77;67.16;97472.19;5088398;28;20181;-78
2022/11/26 01:23:18;;;;;;;9.40;6.03;;;;;;;4.46;68.06;97486.38;5087421;28;20236;-78
2022/11/26 01:25:46;;;;;;;7.40;6.07;;;;;;;4.50;68.76;97482.88;5069970;28;20204;-78
2022/11/26 01:28:16;;;;;;;9.50;4.97;;;;;;;3.77;70.04;97459.16;5087911;28;20208;-79
2022/11/26 01:30:44;;;;;;;9.20;5.60;;;;;;;3.98;70.43;97476.78;5088156;28;20187;-78
2022/11/26 01:33:11;;;;;;;7.77;5.73;;;;;;;3.88;70.66;97475.22;5088212;28;20202;-79
2022/11/26 01:35:38;;;;;;;8.60;6.17;;;;;;;3.61;71.42;97468.72;5087633;28;20189;-79
2022/11/26 01:38:05;;;;;;;9.10;6.13;;;;;;;3.42;71.96;97454.41;5069959;28;20340;-79
2022/11/26 01:40:35;;;;;;;9.30;6.63;;;;;;;3.53;72.52;97456.84;5069042;28;20214;-78
2022/11/26 01:43:25;;;;;;;10.07;6.37;;;;;;;3.53;72.40;97454.28;5069608;28;20200;-79
2022/11/26 01:45:54;;;;;;;9.27;6.23;;;;;;;3.61;72.06;97437.13;5069480;28;20189;-79
2022/11/26 01:48:42;;;;;;;9.63;6.53;;;;;;;4.00;71.26;97451.97;5087122;28;20230;-79
2022/11/26 01:51:11;;;;;;;6.93;5.57;;;;;;;4.02;70.62;97456.22;5103642;28;20671;-78
2022/11/26 01:53:55;;;;;;;8.23;6.07;;;;;;;4.18;70.28;97456.88;5068794;28;20197;-78
2022/11/26 01:56:38;;;;;;;8.37;5.27;;;;;;;4.45;69.60;97466.72;5092765;28;20231;-79
2022/11/26 01:59:11;;;;;;;6.50;5.47;;;;;;;4.59;69.30;97462.25;5070982;28;20203;-78
2022/11/26 02:01:38;;;;;;;8.70;4.97;;;;;;;4.47;68.68;97467.53;5068559;28;20275;-78
2022/11/26 02:04:19;;;;;;;5.97;4.67;;;;;;;4.28;69.48;97462.72;5103347;28;20192;-78
2022/11/26 02:06:48;;;;;;;7.23;5.47;;;;;;;3.94;71.10;97462.31;5068804;28;20709;-78
2022/11/26 02:09:16;;;;;;;9.80;5.90;;;;;;;3.58;71.28;97455.97;5069236;28;20239;-77
2022/11/26 02:11:46;;;;;;;8.17;5.23;;;;;;;3.53;71.81;97459.41;5068654;28;20204;-77
2022/11/26 02:14:15;;;;;;;6.70;4.97;;;;;;;3.47;72.10;97470.59;5086900;28;20212;-77
2022/11/26 02:17:06;;;;;;;6.43;5.10;;;;;;;3.48;72.08;97476.56;5085602;28;20303;-77
2022/11/26 02:19:44;;;;;;;6.43;4.83;;;;;;;3.80;71.28;97474.47;5068457;28;20212;-78
2022/11/26 02:22:48;;;;;;;9.43;5.73;;;;;;;4.16;70.30;97484.25;5087231;28;20194;-77
2022/11/26 02:25:34;;;;;;;6.67;5.37;;;;;;;4.26;69.95;97488.38;5102772;28;20711;-78
2022/11/26 02:28:14;;;;;;;9.03;5.60;;;;;;;4.31;69.27;97491.69;5101773;28;20284;-77
2022/11/26 02:30:47;;;;;;;8.87;5.40;;;;;;;4.41;68.98;97488.13;5068852;28;20655;-78
2022/11/26 02:33:27;;;;;;;9.70;6.53;;;;;;;4.22;68.54;97484.16;5068771;28;20263;-78
2022/11/26 02:36:13;;;;;;;8.73;6.13;;;;;;;3.77;70.19;97495.00;5086918;28;20234;-77
2022/11/26 02:38:41;;;;;;;9.27;6.57;;;;;;;3.52;71.40;97493.56;5086855;28;20751;-77
2022/11/26 02:41:09;;;;;;;8.93;6.90;;;;;;;3.23;71.85;97504.97;5086142;28;20645;-78
2022/11/26 02:43:39;;;;;;;9.63;7.10;;;;;;;3.11;73.21;97501.69;5069825;28;20216;-77
2022/11/26 02:46:11;;;;;;;12.10;7.17;;;;;;;2.91;73.49;97499.28;5086821;28;20192;-78
2022/11/26 02:48:43;;;;;;;10.63;7.07;;;;;;;2.79;74.31;97504.50;5086783;28;20618;-77
2022/11/26 02:51:21;;;;;;;10.90;7.47;;;;;;;2.61;74.63;97499.53;5085876;28;20184;-78
2022/11/26 02:53:50;;;;;;;12.87;8.37;;;;;;;2.59;74.49;97503.81;5094320;28;20191;-78
2022/11/26 02:56:23;;;;;;;10.00;7.43;;;;;;;2.63;74.79;97515.72;5087768;28;20219;-78
2022/11/26 02:58:53;;;;;;;14.13;7.37;;;;;;;2.77;74.51;97500.25;5084768;28;20227;-78
2022/11/26 03:01:38;;;;;;;10.17;7.03;;;;;;;3.11;73.53;97517.84;5086975;28;20189;-78
2022/11/26 03:04:14;;;;;;;10.63;7.07;;;;;;;3.10;72.61;97521.28;5068822;28;20679;-78
2022/11/26 03:06:42;;;;;;;9.50;6.87;;;;;;;2.98;72.55;97508.63;5086376;28;20238;-78
2022/11/26 03:09:10;;;;;;;11.03;7.80;;;;;;;3.04;73.40;97526.47;5090883;28;20180;-78
2022/11/26 03:11:38;;;;;;;13.70;8.20;;;;;;;3.26;73.06;97527.09;5090064;28;20212;-78
2022/11/26 03:14:05;;;;;;;13.10;8.40;;;;;;;3.48;72.35;97530.31;5072331;28;20196;-78
2022/11/26 03:16:33;;;;;;;14.27;9.10;;;;;;;3.38;71.38;97487.75;5089647;28;20211;-78
2022/11/26 03:19:00;;;;;;;16.07;9.63;;;;;;;3.74;71.05;97515.50;5072114;28;20220;-78
2022/11/26 03:21:27;;;;;;;13.93;9.67;;;;;;;3.49;71.56;97508.97;5072162;28;20258;-79
2022/11/26 03:23:56;;;;;;;12.77;9.63;;;;;;;3.34;72.23;97473.31;5071699;28;20188;-78
2022/11/26 03:26:23;;;;;;;11.60;9.13;;;;;;;3.47;72.02;97490.22;5090593;28;20184;-78
2022/11/26 03:28:51;;;;;;;14.70;9.70;;;;;;;3.64;71.40;97519.03;5071481;28;20180;-78
2022/11/26 03:31:20;;;;;;;13.80;9.40;;;;;;;3.82;70.89;97513.72;5105774;28;20191;-78
2022/11/26 03:33:47;;;;;;;14.50;10.03;;;;;;;3.89;70.37;97528.16;5090169;28;20279;-79
2022/11/26 03:36:14;;;;;;;16.53;10.77;;;;;;;3.86;70.74;97533.28;5071789;28;20219;-77
2022/11/26 03:38:41;;;;;;;15.83;10.63;;;;;;;4.00;70.02;97533.97;5090010;28;20244;-78
2022/11/26 03:41:08;;;;;;;18.43;11.83;;;;;;;3.97;70.60;97541.72;5089899;28;20220;-78
2022/11/26 03:43:35;;;;;;;18.80;13.97;;;;;;;3.94;69.84;97547.72;5090394;28;20246;-77
2022/11/26 03:46:02;;;;;;;16.17;10.07;;;;;;;3.60;70.16;97523.34;5089188;28;20671;-78
2022/11/26 03:48:29;;;;;;;11.23;8.50;;;;;;;3.56;70.44;97560.09;5090215;28;20184;-79
2022/11/26 03:50:57;;;;;;;11.37;8.10;;;;;;;3.35;70.66;97556.88;5094160;28;20218;-78
2022/11/26 03:53:24;;;;;;;12.53;8.43;;;;;;;2.96;72.60;97528.25;5072955;28;20196;-78
2022/11/26 03:55:51;;;;;;;23.37;10.17;;;;;;;3.15;71.93;97552.78;5055187;28;20283;-80
2022/11/26 03:58:19;;;;;;;14.87;10.13;;;;;;;3.37;71.86;97570.53;5089257;28;20216;-78
2022/11/26 04:00:46;;;;;;;16.13;10.57;;;;;;;3.27;71.97;97562.09;5089890;28;20184;-77
2022/11/26 04:03:13;;;;;;;14.10;9.67;;;;;;;2.95;72.25;97546.13;5070762;28;20670;-77
2022/11/26 04:05:41;;;;;;;12.53;9.87;;;;;;;2.92;73.00;97570.06;5089830;28;20569;-77
2022/11/26 04:08:08;;;;;;;15.73;10.03;;;;;;;2.67;74.06;97577.88;5054239;28;20234;-77
2022/11/26 04:10:35;;;;;;;15.47;10.20;;;;;;;2.83;73.76;97557.31;5088229;28;20281;-77
2022/11/26 04:13:02;;;;;;;15.60;9.53;;;;;;;3.19;72.84;97587.72;5089162;28;20191;-77
2022/11/26 04:15:29;;;;;;;11.87;9.03;;;;;;;2.93;72.56;97592.19;5089085;28;20710;-77
2022/11/26 04:17:57;;;;;;;14.03;9.17;;;;;;;2.60;74.76;97587.28;5089320;28;20257;-77
2022/11/26 04:20:24;;;;;;;11.80;8.20;;;;;;;2.54;74.76;97583.91;5104162;28;20184;-77
2022/11/26 04:22:51;;;;;;;12.97;8.17;;;;;;;2.34;75.05;97561.03;5089727;28;20319;-77
2022/11/26 04:25:18;;;;;;;9.90;6.93;;;;;;;2.47;74.80;97594.19;5088190;28;20597;-77
2022/11/26 04:27:46;;;;;;;10.13;6.90;;;;;;;2.40;76.04;97594.22;5088918;28;20697;-78
2022/11/26 04:30:14;;;;;;;8.53;6.10;;;;;;;2.36;75.76;97603.63;5070531;28;20197;-78
2022/11/26 04:32:41;;;;;;;8.50;5.83;;;;;;;2.37;76.14;97596.81;5070681;28;20213;-78
2022/11/26 04:35:09;;;;;;;7.80;5.47;;;;;;;2.20;75.77;97583.25;5089103;28;20192;-78
2022/11/26 04:37:36;;;;;;;7.70;5.30;;;;;;;2.47;74.87;97603.59;5088153;28;20442;-78
2022/11/26 04:40:04;;;;;;;7.90;5.07;;;;;;;2.51;75.00;97605.25;5087610;28;20287;-78
2022/11/26 04:42:32;;;;;;;7.73;5.37;;;;;;;2.43;74.93;97601.91;5070214;28;20220;-78
2022/11/26 04:44:59;;;;;;;7.53;5.53;;;;;;;2.66;74.49;97610.28;5089027;28;20249;-78
2022/11/26 04:47:26;;;;;;;10.47;6.10;;;;;;;2.57;73.95;97607.78;5103987;28;20189;-78
2022/11/26 04:49:54;;;;;;;9.97;6.73;;;;;;;2.70;73.48;97609.38;5092991;28;20212;-77
2022/11/26 04:52:22;;;;;;;10.43;6.87;;;;;;;2.79;74.32;97611.03;5088559;28;20743;-79
2022/11/26 04:54:49;;;;;;;12.17;7.83;;;;;;;3.05;73.55;97610.00;5088421;28;20214;-79
2022/11/26 04:57:17;;;;;;;14.97;10.17;;;;;;;3.22;72.82;97615.84;5088922;28;20199;-79
2022/11/26 04:59:47;;;;;;;14.53;10.00;;;;;;;3.35;71.87;97602.97;5069850;28;20192;-78
2022/11/26 05:02:15;;;;;;;13.20;9.83;;;;;;;3.51;71.44;97612.19;5071001;28;20197;-79
2022/11/26 05:04:42;;;;;;;17.37;11.63;;;;;;;3.52;71.46;97612.19;5087839;28;20188;-78
2022/11/26 05:07:09;;;;;;;28.90;19.37;;;;;;;3.61;70.96;97613.81;5088102;28;20200;-79
2022/11/26 05:09:36;;;;;;;29.70;18.77;;;;;;;3.66;71.53;97625.72;5069693;28;20608;-78
2022/11/26 05:12:03;;;;;;;22.20;14.03;;;;;;;3.56;71.06;97619.00;5087919;28;20275;-78
2022/11/26 05:14:31;;;;;;;16.53;11.73;;;;;;;3.64;70.74;97637.69;5088222;28;20249;-78
2022/11/26 05:16:58;;;;;;;18.33;11.63;;;;;;;3.52;70.63;97614.75;5087597;28;20219;-78
2022/11/26 05:19:25;;;;;;;19.80;11.93;;;;;;;3.55;71.34;97621.53;5088479;28;20248;-79
2022/11/26 05:21:52;;;;;;;20.77;12.83;;;;;;;3.64;70.82;97635.13;5087490;28;20216;-77
2022/11/26 05:24:21;;;;;;;19.90;12.43;;;;;;;3.76;71.02;97637.56;5092810;28;20192;-79
2022/11/26 05:26:48;;;;;;;16.93;11.07;;;;;;;3.55;70.82;97626.66;5107926;28;20275;-79
2022/11/26 05:29:22;;;;;;;16.83;11.43;;;;;;;3.49;70.74;97654.88;5107818;28;20195;-78
2022/11/26 05:31:56;;;;;;;14.73;11.17;;;;;;;3.03;71.19;97637.31;5089959;28;20229;-77
2022/11/26 05:34:23;;;;;;;16.73;12.47;;;;;;;3.02;71.99;97650.13;5107667;28;20215;-76
2022/11/26 05:36:52;;;;;;;25.97;13.13;;;;;;;3.09;72.02;97651.78;5108355;28;20183;-77
2022/11/26 05:39:19;;;;;;;18.13;11.80;;;;;;;3.14;71.50;97650.88;5088568;28;20725;-76
2022/11/26 05:41:46;;;;;;;17.93;11.30;;;;;;;3.14;71.09;97652.59;5107939;28;20278;-77
2022/11/26 05:44:13;;;;;;;14.87;10.27;;;;;;;2.59;73.38;97664.00;5107908;28;20283;-76
2022/11/26 05:46:41;;;;;;;13.20;9.90;;;;;;;2.27;74.37;97654.75;5094676;28;20270;-77
2022/11/26 05:49:09;;;;;;;15.63;10.13;;;;;;;2.39;74.90;97671.78;5107591;28;20248;-76
2022/11/26 05:51:36;;;;;;;11.73;8.03;;;;;;;2.28;75.44;97676.06;5088683;28;20188;-76
2022/11/26 05:54:04;;;;;;;10.63;7.80;;;;;;;1.93;76.05;97648.06;5108228;28;20739;-79
2022/11/26 05:56:31;;;;;;;13.37;8.17;;;;;;;2.27;74.91;97692.22;5107097;28;20187;-78
2022/11/26 05:58:58;;;;;;;9.87;7.20;;;;;;;2.17;75.46;97704.19;5108977;28;20219;-78
2022/11/26 06:01:25;;;;;;;10.73;7.70;;;;;;;2.20;75.43;97698.22;5107254;28;20199;-78
2022/11/26 06:03:52;;;;;;;11.33;7.80;;;;;;;2.23;74.95;97693.94;5107766;28;20624;-79
2022/11/26 06:06:19;;;;;;;11.27;7.73;;;;;;;2.28;75.20;97696.50;5107804;28;20545;-79
2022/11/26 06:08:47;;;;;;;11.30;7.70;;;;;;;2.12;75.56;97659.09;5089226;28;20175;-78
2022/11/26 06:11:14;;;;;;;11.50;8.27;;;;;;;2.25;75.27;97694.78;5107375;28;20238;-77
2022/11/26 06:13:41;;;;;;;10.53;7.70;;;;;;;2.11;75.24;97672.69;5088500;28;20191;-78
2022/11/26 06:16:10;;;;;;;11.63;8.30;;;;;;;2.50;75.08;97710.91;5108111;28;20180;-77
2022/11/26 06:18:38;;;;;;;11.43;7.57;;;;;;;2.71;73.69;97702.28;5088605;28;20220;-79
2022/11/26 06:21:06;;;;;;;11.17;8.00;;;;;;;3.08;73.72;97717.44;5107429;28;20269;-78
2022/11/26 06:23:34;;;;;;;15.13;9.17;;;;;;;3.19;72.40;97687.50;5088912;28;20588;-77
2022/11/26 06:26:06;;;;;;;15.50;9.73;;;;;;;3.72;71.73;97720.41;5107178;28;20560;-77
2022/11/26 06:28:34;;;;;;;13.87;8.70;;;;;;;3.93;70.09;97721.94;5107605;28;20183;-76
2022/11/26 06:31:01;;;;;;;16.17;9.43;;;;;;;3.86;69.92;97716.03;5087900;28;20593;-78
2022/11/26 06:33:29;;;;;;;13.53;9.70;;;;;;;4.04;69.62;97727.81;5107692;28;20275;-79
2022/11/26 06:36:03;;;;;;;12.43;9.13;;;;;;;4.01;69.90;97723.59;5106930;28;20194;-78
2022/11/26 06:38:30;;;;;;;13.90;10.20;;;;;;;4.00;69.69;97708.19;5106014;28;20734;-79
2022/11/26 06:41:04;;;;;;;15.27;9.63;;;;;;;4.18;69.11;97713.19;5106909;28;20206;-78
2022/11/26 06:43:31;;;;;;;19.70;10.80;;;;;;;4.24;68.86;97722.50;5110493;28;20180;-78
2022/11/26 06:46:06;;;;;;;14.17;9.33;;;;;;;4.31;68.26;97716.47;5115404;28;20256;-79
2022/11/26 06:48:37;;;;;;;20.00;11.07;;;;;;;4.50;68.27;97717.94;5091934;28;20195;-79
2022/11/26 06:51:12;;;;;;;13.63;9.37;;;;;;;4.37;69.17;97724.91;5112051;28;20204;-79
2022/11/26 06:53:40;;;;;;;18.00;10.37;;;;;;;4.59;69.34;97728.97;5111049;28;20198;-79
2022/11/26 06:56:10;;;;;;;13.90;8.87;;;;;;;4.71;67.94;97725.41;5111407;28;20188;-79
2022/11/26 06:58:45;;;;;;;12.57;8.00;;;;;;;4.54;68.15;97712.78;5109286;28;20936;-78
2022/11/26 07:01:19;;;;;;;12.83;8.80;;;;;;;4.41;69.18;97718.88;5108981;28;20586;-79
2022/11/26 07:03:46;;;;;;;13.57;9.00;;;;;;;4.63;69.45;97727.22;5093515;28;20192;-79
2022/11/26 07:06:24;;;;;;;10.80;7.97;;;;;;;4.61;68.90;97719.53;5110274;28;20195;-78
2022/11/26 07:08:54;;;;;;;12.17;8.20;;;;;;;4.76;69.11;97718.50;5110754;28;20202;-78
2022/11/26 07:11:26;;;;;;;12.43;8.07;;;;;;;4.95;68.74;97718.25;5111164;28;20801;-79
2022/11/26 07:13:53;;;;;;;12.73;8.27;;;;;;;5.04;68.33;97731.81;5092041;28;20190;-78
2022/11/26 07:16:20;;;;;;;15.03;8.27;;;;;;;4.88;68.27;97723.50;5092602;28;20188;-78
2022/11/26 07:18:50;;;;;;;11.87;7.47;;;;;;;4.82;69.24;97734.66;5109890;28;20223;-79
2022/11/26 07:21:24;;;;;;;12.30;8.00;;;;;;;5.00;68.32;97737.88;5111105;28;20690;-80
2022/11/26 07:23:52;;;;;;;12.77;7.17;;;;;;;5.19;67.70;97731.63;5110424;28;20662;-79
2022/11/26 07:26:21;;;;;;;10.73;5.97;;;;;;;5.41;67.57;97735.59;5093362;28;20296;-78
2022/11/26 07:28:48;;;;;;;14.00;7.80;;;;;;;5.27;67.07;97728.09;5091554;28;20244;-79
2022/11/26 07:34:16;;;;;;;10.80;6.83;;;;;;;5.37;67.17;97744.22;5110226;28;20724;-77
2022/11/26 07:36:47;;;;;;;14.97;9.07;;;;;;;5.41;66.56;97726.19;5091213;28;20237;-78
2022/11/26 07:39:15;;;;;;;8.27;6.20;;;;;;;5.46;66.82;97738.97;5091663;28;20575;-79
2022/11/26 07:41:45;;;;;;;10.87;7.93;;;;;;;5.71;66.83;97725.69;5110200;27;20195;-78
2022/11/26 07:44:13;;;;;;;10.83;7.50;;;;;;;5.91;66.45;97737.44;5093523;28;20188;-76
2022/11/26 07:46:43;;;;;;;10.60;6.37;;;;;;;5.95;65.69;97719.38;5091002;28;20189;-78
2022/11/26 07:49:11;;;;;;;7.63;6.20;;;;;;;6.18;64.18;97734.41;5109420;28;20201;-77
2022/11/26 07:51:39;;;;;;;9.73;6.20;;;;;;;6.35;64.63;97751.22;5091535;28;20188;-78
2022/11/26 07:54:15;;;;;;;10.87;6.30;;;;;;;6.29;64.61;97729.88;5105224;28;20194;-78
2022/11/26 07:56:42;;;;;;;10.10;6.50;;;;;;;6.22;64.73;97724.00;5091635;28;20887;-80
2022/11/26 07:59:10;;;;;;;12.00;7.37;;;;;;;6.34;64.22;97734.09;5074064;28;20227;-80
2022/11/26 08:01:42;;;;;;;14.47;6.97;;;;;;;6.57;65.50;97747.38;5091144;28;21176;-81
2022/11/26 08:04:12;;;;;;;12.27;7.67;;;;;;;6.66;65.22;97735.22;5105240;27;20197;-79
2022/11/26 08:06:42;;;;;;;8.67;6.70;;;;;;;6.71;63.80;97734.25;5098226;28;20218;-79
2022/11/26 08:09:11;;;;;;;9.13;7.73;;;;;;;6.91;62.76;97744.13;5089221;28;20682;-80
2022/11/26 08:11:40;;;;;;;12.27;8.17;;;;;;;7.11;62.51;97736.88;5087452;28;20237;-78
2022/11/26 08:14:11;;;;;;;11.20;8.00;;;;;;;7.26;62.22;97733.97;5088268;28;20223;-78
2022/11/26 08:16:39;;;;;;;12.23;7.27;;;;;;;7.13;62.04;97691.34;5072031;28;20273;-80
2022/11/26 08:19:11;;;;;;;11.13;8.00;;;;;;;7.40;61.70;97734.50;5106503;28;20629;-79
2022/11/26 08:21:38;;;;;;;13.77;9.00;;;;;;;7.66;61.96;97733.91;5096829;28;20201;-77
2022/11/26 08:24:13;;;;;;;10.13;7.93;;;;;;;7.60;60.16;97716.88;5094587;28;20280;-78
2022/11/26 08:26:41;;;;;;;13.30;8.30;;;;;;;7.71;60.40;97732.91;5076001;28;20226;-76
2022/11/26 08:29:12;;;;;;;11.87;8.30;;;;;;;7.91;61.98;97732.47;5095360;28;20210;-76
2022/11/26 08:31:40;;;;;;;18.73;8.87;;;;;;;8.11;59.94;97731.09;5069747;28;20211;-78
2022/11/26 08:34:18;;;;;;;15.23;8.67;;;;;;;8.30;59.20;97739.25;5110418;28;20214;-78
2022/11/26 08:36:47;;;;;;;13.80;9.77;;;;;;;8.44;58.79;97741.44;5070767;28;20211;-79
2022/11/26 08:39:16;;;;;;;12.83;9.03;;;;;;;8.54;58.38;97740.31;5087587;28;20690;-79
2022/11/26 08:43:07;;;;;;;74.57;42.00;;;;;;;9.11;62.15;97736.13;4500023;27;16972876;-81
2022/11/26 08:46:51;;;;;;;19.23;14.90;;;;;;;9.17;57.16;97741.13;5085395;28;20199;-82
2022/11/26 08:50:00;;;;;;;15.73;9.60;;;;;;;9.07;57.44;97734.53;5087377;28;20249;-80
2022/11/26 08:54:10;;;;;;;14.30;9.00;;;;;;;9.35;59.50;97738.00;5084928;28;20353;-81
2022/11/26 08:58:33;;;;;;;10.77;7.83;;;;;;;9.26;55.39;97733.09;5099921;28;20226;-83
2022/11/26 09:02:12;;;;;;;16.27;8.67;;;;;;;9.35;55.62;97730.25;5103183;28;20223;-82
2022/11/26 09:05:35;;;;;;;14.83;9.60;;;;;;;9.41;55.47;97713.72;5100769;28;20208;-83
2022/11/26 09:23:38;;;;;;;13.53;7.63;;;;;;;10.14;52.40;97743.31;5069278;28;20887;-81
2022/11/26 09:28:25;;;;;;;14.67;8.63;;;;;;;10.35;52.60;97737.41;5039595;28;20676;-80
2022/11/26 09:33:13;;;;;;;30.30;7.70;;;;;;;10.48;51.14;97736.09;4992811;28;20647;-82
2022/11/26 09:38:15;;;;;;;13.73;7.50;;;;;;;10.57;51.02;97734.03;5000165;28;20206;-81
2022/11/26 09:42:20;;;;;;;11.83;7.10;;;;;;;10.80;50.28;97725.44;4947618;28;20322;-82
2022/11/26 09:51:39;;;;;;;8.53;4.97;;;;;;;10.62;49.48;97705.38;4997322;28;20294;-82
2022/11/26 09:56:03;;;;;;;9.37;6.30;;;;;;;11.06;49.06;97708.97;4988713;28;20222;-80
2022/11/26 10:00:16;;;;;;;18.43;5.30;;;;;;;11.03;47.86;97691.78;5000100;28;20215;-81
2022/11/26 10:04:59;;;;;;;5.20;4.03;;;;;;;11.25;46.60;97697.03;5027360;28;20207;-81
2022/11/26 10:14:12;;;;;;;2.37;1.90;;;;;;;11.08;45.49;97684.69;4989046;28;20698;-84
2022/11/26 10:18:52;;;;;;;3.70;1.80;;;;;;;11.17;45.40;97689.50;4929604;29;20201;-82
2022/11/26 10:24:00;;;;;;;2.13;1.93;;;;;;;11.03;45.67;97693.53;4818107;29;20336;-81
2022/11/26 10:28:50;;;;;;;2.47;1.80;;;;;;;11.07;45.03;97692.50;4763781;30;20216;-81
2022/11/26 10:33:21;;;;;;;3.93;2.60;;;;;;;11.08;44.71;97660.50;4763558;30;20215;-82
2022/11/26 10:47:15;;;;;;;2.30;1.73;;;;;;;11.29;44.05;97683.03;4813162;29;20696;-81
2022/11/26 10:50:28;;;;;;;2.83;1.60;;;;;;;11.27;44.45;97680.47;4853323;29;20240;-81
2022/11/26 10:54:55;;;;;;;3.60;1.83;;;;;;;11.28;44.68;97674.41;4948700;29;20209;-83
2022/11/26 10:59:59;;;;;;;5.30;2.23;;;;;;;11.57;44.72;97667.22;4904066;29;20229;-80
2022/11/26 11:04:43;;;;;;;3.13;1.73;;;;;;;11.52;43.82;97664.81;4907618;29;20205;-82
2022/11/26 11:09:12;;;;;;;2.83;1.80;;;;;;;11.60;44.27;97665.38;4889185;29;20270;-81
2022/11/26 11:13:17;;;;;;;3.37;1.73;;;;;;;11.38;44.01;97661.91;4920871;29;20210;-79
2022/11/26 11:16:01;;;;;;;2.27;1.77;;;;;;;11.56;43.35;97662.97;4963002;28;20204;-80
2022/11/26 11:19:47;;;;;;;2.30;1.77;;;;;;;11.40;44.17;97650.59;4956649;28;20216;-79
2022/11/26 11:23:02;;;;;;;3.30;1.73;;;;;;;11.56;43.81;97662.97;4949245;28;20682;-85
2022/11/26 11:26:53;;;;;;;2.77;2.03;;;;;;;11.38;44.23;97662.78;4949340;28;20275;-81
2022/11/26 11:30:41;;;;;;;27.30;5.17;;;;;;;11.62;45.55;97636.78;5008606;28;20214;-81
2022/11/26 11:34:09;;;;;;;5.80;2.83;;;;;;;11.98;43.04;97656.06;5019707;28;20203;-83
2022/11/26 12:07:45;;;;;;;13.50;3.97;;;;;;;12.03;41.70;97661.91;4952324;28;20730;-79
2022/11/26 12:12:44;;;;;;;16.53;8.73;;;;;;;12.11;42.05;97672.81;4964499;28;20304;-81
2022/11/26 12:16:56;;;;;;;4.73;2.37;;;;;;;11.95;42.00;97659.63;4984001;28;20262;-82
2022/11/26 12:20:30;;;;;;;3.43;2.40;;;;;;;12.09;42.73;97656.47;4970367;28;20675;-80
2022/11/26 12:29:08;;;;;;;3.57;2.00;;;;;;;11.77;42.69;97656.94;4967716;28;20752;-83
2022/11/26 12:47:37;;;;;;;2.00;1.80;;;;;;;11.48;43.73;97667.63;4890061;29;20206;-81
2022/11/26 12:52:24;;;;;;;2.97;2.40;;;;;;;11.44;43.45;97669.47;4888507;29;20283;-80
2022/11/26 13:11:14;;;;;;;2.90;2.00;;;;;;;11.07;43.82;97677.81;4888016;29;20720;-80
2022/11/26 13:15:15;;;;;;;5.63;1.77;;;;;;;11.06;43.63;97676.13;4932620;29;20583;-80
2022/11/26 13:19:04;;;;;;;2.40;2.10;;;;;;;11.04;43.83;97680.53;4943017;29;20231;-83
2022/11/26 13:31:45;;;;;;;3.43;2.13;;;;;;;11.14;44.39;97688.78;4896740;29;20774;-80
2022/11/26 13:35:03;;;;;;;3.50;2.10;;;;;;;11.12;43.70;97695.78;4896110;29;20199;-79
2022/11/26 13:39:49;;;;;;;2.03;1.73;;;;;;;10.84;43.80;97693.34;4892666;29;20295;-80
2022/11/26 13:44:25;;;;;;;4.67;2.10;;;;;;;10.82;44.43;97692.56;4816312;29;20231;-80
2022/11/26 13:47:59;;;;;;;3.47;2.40;;;;;;;10.79;44.35;97687.50;4838726;29;20740;-82
2022/11/26 13:55:16;;;;;;;2.93;2.10;;;;;;;10.65;44.31;97695.75;4894144;29;20296;-80
2022/11/26 13:59:38;;;;;;;3.30;2.17;;;;;;;10.67;44.70;97677.59;4978214;28;20370;-81
2022/11/26 14:02:46;;;;;;;2.80;2.07;;;;;;;10.70;44.43;97697.34;4987603;28;20293;-80
2022/11/26 14:06:10;;;;;;;2.30;2.00;;;;;;;10.64;44.19;97688.03;5005555;28;20207;-80
2022/11/26 14:08:51;;;;;;;7.03;2.20;;;;;;;10.73;44.57;97707.59;4990881;28;20199;-79
2022/11/26 14:11:40;;;;;;;5.60;2.20;;;;;;;10.69;44.56;97717.25;4989413;28;20658;-81
2022/11/26 14:15:03;;;;;;;2.57;2.07;;;;;;;10.51;44.69;97691.97;5005853;28;20714;-81
2022/11/26 14:18:08;;;;;;;2.87;1.93;;;;;;;10.39;44.79;97700.16;5016210;28;20620;-81
2022/11/26 14:21:00;;;;;;;2.97;1.90;;;;;;;10.42;45.51;97729.41;5046311;28;20201;-80
2022/11/26 14:23:43;;;;;;;2.40;1.80;;;;;;;10.35;45.44;97722.72;5029781;28;20256;-80
2022/11/26 14:26:28;;;;;;;2.17;1.70;;;;;;;10.32;45.39;97725.44;5031287;28;20625;-80
2022/11/26 14:29:19;;;;;;;4.70;1.97;;;;;;;10.21;45.96;97729.25;5029742;28;20194;-79
2022/11/26 14:31:53;;;;;;;2.07;1.70;;;;;;;10.17;46.19;97728.53;5031224;28;20190;-79
2022/11/26 14:34:42;;;;;;;3.03;2.03;;;;;;;10.06;46.21;97730.56;5049612;28;20553;-79
2022/11/26 14:37:15;;;;;;;4.83;3.43;;;;;;;9.95;46.48;97701.63;5013355;28;20198;-80
2022/11/26 14:39:46;;;;;;;7.30;4.53;;;;;;;10.14;46.26;97732.97;5049016;28;20237;-80
2022/11/26 14:42:18;;;;;;;3.77;3.37;;;;;;;10.00;46.65;97725.59;5030023;28;20772;-80
2022/11/26 14:45:26;;;;;;;2.33;2.00;;;;;;;9.95;47.09;97752.53;5015926;28;20210;-80
2022/11/26 14:47:58;;;;;;;3.97;2.77;;;;;;;9.80;47.48;97744.38;4983428;28;20277;-80
2022/11/26 14:50:56;;;;;;;3.17;2.40;;;;;;;9.83;47.46;97754.59;5010373;28;20821;-79
2022/11/26 14:53:43;;;;;;;3.60;2.67;;;;;;;9.72;47.80;97741.19;5023354;28;20646;-80
2022/11/26 14:56:38;;;;;;;2.60;2.17;;;;;;;9.73;48.27;97755.78;5035251;28;20198;-79
2022/11/26 14:59:20;;;;;;;2.33;2.13;;;;;;;9.70;47.99;97763.66;5073520;28;20876;-80
2022/11/26 15:02:24;;;;;;;5.67;4.00;;;;;;;9.65;48.60;97759.50;5063180;28;20751;-80
2022/11/26 15:05:12;;;;;;;5.47;3.20;;;;;;;9.64;48.68;97773.34;5068272;28;20186;-80
2022/11/26 15:07:55;;;;;;;2.57;2.37;;;;;;;9.48;48.81;97754.84;5049592;28;20227;-80
2022/11/26 15:10:40;;;;;;;5.40;3.03;;;;;;;9.38;48.85;97763.75;5050265;28;20285;-80
2022/11/26 15:13:40;;;;;;;5.57;4.10;;;;;;;9.48;49.27;97782.44;5022782;28;20197;-78
2022/11/26 15:16:46;;;;;;;5.73;4.03;;;;;;;9.50;49.38;97780.66;5066725;28;20272;-80